Impacts METAR Board
IDs:

KMCO - Orlando Intl, FL, US

Updated at: 0800 UTC 23 Jul 2019
Potential Impact None Slight Moderate High
Time 22/20Z 22/21Z 22/22Z 22/23Z 23/00Z 23/01Z 23/02Z 23/03Z 23/04Z 23/05Z 23/06Z 23/07Z 23/08Z
Temp86 85 88 85 81 81 81 78 77 77 77 76 76
Dewpt72 73 73 73 73 74 74 73 72 72 72 72 72
Altim30.00 29.99 29.96 29.96 30.00 29.99 30.01 30.01 30.01 30.01 30.00 29.98 29.97
VIS10 10 10 10 10 10 10 10 10 10 10 10 10
CIG250 250 250 250 220 220 150 180 240 210 -- -- --
CoverBKNBKNBKNBKNBKNBKNOVCBKNBKNBKNSCTSCTFEW
FltCatVFRVFRVFRVFRVFRVFRVFRVFRVFRVFRVFRVFRVFR
WXTS-RA----------------------
WDir10012013015016016024026024031035000
WSpd11 6 11 13 6 6 10 6 3 5 5 0 0
WGst-- -- -- -- -- -- -- -- -- -- -- -- --
Raw hourly METARs
KMCO 221953Z 10011KT 10SM TS SCT050CB SCT110 BKN250 30/22 A3000 RMK AO2 WSHFT 1916 LTG DSNT S TSB45 SLP159 OCNL LTGCG SE-S TS SE-S MOV W CB DSNT NE MOV W T03000222
KMCO 222053Z 12006KT 10SM -RA FEW048 SCT095 BKN250 29/23 A2999 RMK AO2 LTG DSNT S AND SW RAB53 TSE18 SLP152 CB DSNT S-SW P0000 60000 T02940228 58010
KMCO 222153Z 13011KT 10SM FEW050 SCT190 BKN250 31/23 A2996 RMK AO2 LTG DSNT SE AND W AND NW RAE16 SLP144 CB DSNT W P0000 T03110228
KMCO 222253Z 15013KT 10SM FEW050 SCT170 BKN250 29/23 A2996 RMK AO2 LTG DSNT W SLP145 CB DSNT S-W-NW T02940228
KMCO 222353Z 16006KT 10SM FEW050 SCT190 BKN220 BKN300 27/23 A3000 RMK AO2 LTG DSNT NW SLP157 CB DSNT NW-N TCU DSNT N 60000 T02720228 10339 20272 53005
KMCO 230053Z 16006KT 10SM FEW050 SCT190 BKN220 BKN300 27/23 A2999 RMK AO2 LTG DSNT NW SLP155 CONS LTGIC DSNT NW CB DSNT NW T02720233
KMCO 230153Z 24010KT 10SM SCT025 BKN150 OVC220 27/23 A3001 RMK AO2 SLP160 T02720233
KMCO 230253Z 26006KT 10SM SCT029 BKN180 BKN250 26/23 A3001 RMK AO2 SLP161 T02560228 53004
KMCO 230353Z 24003KT 10SM SCT024 SCT180 BKN240 25/22 A3001 RMK AO2 SLP160 T02500222
KMCO 230453Z 31005KT 10SM FEW025 FEW190 BKN210 25/22 A3001 RMK AO2 SLP161 T02500222 403390222
KMCO 230553Z 35005KT 10SM FEW025 FEW190 SCT210 25/22 A3000 RMK AO2 SLP155 T02500222 10272 20244 58006
KMCO 230653Z 00000KT 10SM FEW030 FEW120 SCT220 24/22 A2998 RMK AO2 SLP151 FRQ LTGIC DSNT SE CB DSNT SE T02440222
KMCO 230753Z 00000KT 10SM FEW250 24/22 A2997 RMK AO2 SLP147 T02440222



Page loaded:  08:55 UTC  |   01:55 AM Pacific  |   02:55 AM Mountain  |   03:55 AM Central  |   04:55 AM Eastern

 

ADVISORIES

FORECASTS

FORECASTS

OBSERVATIONS

USER TOOLS

ABOUT US